createdAt,value
2019-04-22T00:01:50.299Z,48.83
2019-04-22T00:04:32.208Z,48.28
2019-04-22T00:07:18.531Z,48.22
2019-04-22T00:10:03.069Z,48.21
2019-04-22T00:12:37.315Z,48.44
2019-04-22T00:14:59.980Z,48.92
2019-04-22T00:20:08.622Z,49.72
2019-04-22T00:22:46.504Z,50.03
2019-04-22T00:30:34.111Z,50.21
2019-04-22T00:33:13.348Z,50.54
2019-04-22T00:35:52.626Z,50.66
2019-04-22T00:38:33.835Z,50.51
2019-04-22T00:41:10.330Z,50.43
2019-04-22T00:43:42.196Z,50.23
2019-04-22T00:46:10.938Z,50.18
2019-04-22T00:49:05.779Z,50.18
2019-04-22T00:51:22.855Z,50.48
2019-04-22T00:53:57.804Z,50.15
2019-04-22T00:56:28.283Z,50.62
2019-04-22T00:59:11.491Z,50.88
2019-04-22T01:01:36.957Z,51.12
2019-04-22T01:04:20.372Z,50.58
2019-04-22T01:06:49.441Z,50.63
2019-04-22T01:09:23.450Z,51.13
2019-04-22T01:12:04.678Z,51.95
2019-04-22T01:14:37.565Z,51.86
2019-04-22T01:17:07.939Z,52.15
2019-04-22T01:19:52.328Z,51.69
2019-04-22T01:22:17.632Z,51.60
2019-04-22T01:24:50.234Z,51.45
2019-04-22T01:27:20.490Z,51.71
2019-04-22T01:29:51.178Z,51.72
2019-04-22T01:32:18.849Z,51.97
2019-04-22T01:35:05.037Z,51.57
2019-04-22T01:37:45.668Z,51.98
2019-04-22T01:40:23.840Z,51.96
2019-04-22T01:43:14.691Z,51.99
2019-04-22T01:45:40.046Z,51.52
2019-04-22T01:48:17.951Z,51.99
2019-04-22T01:50:43.891Z,52.19
2019-04-22T01:53:27.486Z,52.21
2019-04-22T01:56:02.027Z,51.88
2019-04-22T01:58:30.716Z,51.98
2019-04-22T02:01:04.901Z,52.49
2019-04-22T02:03:46.760Z,52.77
2019-04-22T02:06:25.426Z,53.12
2019-04-22T02:09:00.613Z,52.81
2019-04-22T02:11:32.215Z,53.27
2019-04-22T02:14:05.045Z,53.01
2019-04-22T02:19:18.453Z,53.04
2019-04-22T02:21:46.550Z,53.39
2019-04-22T02:24:26.464Z,53.48
2019-04-22T02:26:54.581Z,53.41
2019-04-22T02:29:32.585Z,53.35
2019-04-22T02:32:24.794Z,53.41
2019-04-22T02:34:50.413Z,53.68
2019-04-22T02:37:21.014Z,52.79
2019-04-22T02:39:57.285Z,53.56
2019-04-22T02:42:16.638Z,52.67
2019-04-22T02:47:29.345Z,53.62
2019-04-22T02:50:06.019Z,53.79
2019-04-22T02:52:37.661Z,53.85
2019-04-22T03:00:38.123Z,53.80
2019-04-22T03:05:41.091Z,54.21
2019-04-22T03:08:06.690Z,54.02
2019-04-22T03:10:51.067Z,54.28
2019-04-22T03:13:21.660Z,54.44
2019-04-22T03:15:55.545Z,54.16
2019-04-22T03:20:58.269Z,54.49
2019-04-22T03:26:14.466Z,54.46
2019-04-22T03:28:49.730Z,54.24
2019-04-22T03:35:09.940Z,54.73
2019-04-22T03:45:00.561Z,55.39
2019-04-22T03:47:31.933Z,55.51
2019-04-22T03:49:56.362Z,55.53
2019-04-22T04:05:43.966Z,56.03
2019-04-22T04:08:12.677Z,55.46
2019-04-22T04:15:57.668Z,56.09
2019-04-22T04:18:21.207Z,56.02
2019-04-22T04:21:12.808Z,56.84
2019-04-22T04:23:37.905Z,57.33
2019-04-22T04:28:50.803Z,56.48
2019-04-22T04:31:25.591Z,56.42
2019-04-22T04:36:28.299Z,56.29
2019-04-22T04:41:42.733Z,56.32
2019-04-22T04:46:47.387Z,56.77
2019-04-22T04:49:19.294Z,56.77
2019-04-22T04:51:47.226Z,56.85
2019-04-22T04:57:14.981Z,56.77
2019-04-22T05:02:09.511Z,57.61
2019-04-22T05:04:59.360Z,57.98
2019-04-22T05:07:29.663Z,57.53
2019-04-22T05:09:59.629Z,57.59
2019-04-22T05:12:53.011Z,57.18
2019-04-22T05:15:04.120Z,57.21
2019-04-22T05:17:43.672Z,57.46
2019-04-22T05:20:33.698Z,57.34
2019-04-22T05:22:44.765Z,58.05
2019-04-22T05:25:17.892Z,57.98
2019-04-22T05:28:07.544Z,58.50
2019-04-22T05:30:27.873Z,58.55
2019-04-22T05:33:01.595Z,58.60
2019-04-22T05:35:39.249Z,58.63
2019-04-22T05:38:17.201Z,57.91
2019-04-22T05:40:50.102Z,57.90
2019-04-22T05:43:21.283Z,58.56
2019-04-22T05:45:58.932Z,58.69
2019-04-22T05:48:33.146Z,58.54
2019-04-22T05:51:03.746Z,58.28
2019-04-22T05:53:40.543Z,58.27
2019-04-22T05:56:20.769Z,57.63
2019-04-22T05:58:53.594Z,57.49
2019-04-22T06:06:43.012Z,56.66
2019-04-22T06:09:19.217Z,56.63
2019-04-22T06:11:42.825Z,56.76
2019-04-22T06:14:21.933Z,56.68
2019-04-22T06:16:59.153Z,57.11
2019-04-22T06:19:33.240Z,56.49
2019-04-22T06:22:19.859Z,56.76
2019-04-22T06:24:49.392Z,57.16
2019-04-22T06:27:31.366Z,56.25
2019-04-22T06:29:53.696Z,56.39
2019-04-22T06:35:16.671Z,56.63
2019-04-22T06:37:46.408Z,56.19
2019-04-22T06:40:13.078Z,56.05
2019-04-22T06:42:56.609Z,55.52
2019-04-22T06:45:23.448Z,54.41
2019-04-22T06:50:38.481Z,53.50
2019-04-22T06:53:11.636Z,52.79
2019-04-22T06:55:44.368Z,51.97
2019-04-22T06:58:15.212Z,51.34
2019-04-22T07:00:53.188Z,49.95
2019-04-22T07:06:13.054Z,49.90
2019-04-22T07:09:09.372Z,49.35
2019-04-22T07:11:14.151Z,48.25
2019-04-22T07:13:57.504Z,47.46
2019-04-22T07:16:32.038Z,47.70
2019-04-22T07:21:37.420Z,45.76
2019-04-22T07:24:27.806Z,44.32
2019-04-22T07:26:44.837Z,43.94
2019-04-22T07:29:20.627Z,43.26
2019-04-22T07:32:03.471Z,42.01
2019-04-22T07:39:44.010Z,40.11
2019-04-22T07:42:19.000Z,40.95
2019-04-22T07:44:51.049Z,40.42
2019-04-22T07:52:35.241Z,40.38
2019-04-22T07:55:05.629Z,39.27
2019-04-22T07:57:44.539Z,39.24
2019-04-22T08:00:34.219Z,39.23
2019-04-22T08:03:01.294Z,39.08
2019-04-22T08:08:16.871Z,38.75
2019-04-22T08:10:52.285Z,38.60
2019-04-22T08:13:19.587Z,37.94
2019-04-22T08:15:56.908Z,38.28
2019-04-22T08:18:29.014Z,39.01
2019-04-22T08:20:58.928Z,38.10
2019-04-22T08:23:39.552Z,37.47
2019-04-22T08:26:05.497Z,37.46
2019-04-22T08:28:48.596Z,37.07
2019-04-22T08:31:20.285Z,37.40
2019-04-22T08:33:59.923Z,38.75
2019-04-22T08:36:32.357Z,37.26
2019-04-22T08:39:08.251Z,37.49
2019-04-22T08:41:37.533Z,36.98
2019-04-22T08:44:17.010Z,36.61
2019-04-22T08:46:56.224Z,36.98
2019-04-22T08:49:26.592Z,36.32
2019-04-22T08:52:01.035Z,36.59
2019-04-22T08:54:36.020Z,36.25
2019-04-22T08:57:18.332Z,35.25
2019-04-22T08:59:49.038Z,35.70
2019-04-22T09:02:25.756Z,35.71
2019-04-22T09:05:10.891Z,36.32
2019-04-22T09:07:37.640Z,35.80
2019-04-22T09:10:10.364Z,35.53
2019-04-22T09:12:56.865Z,36.35
2019-04-22T09:15:20.522Z,35.09
2019-04-22T09:18:00.459Z,35.27
2019-04-22T09:20:30.490Z,34.51
2019-04-22T09:25:51.050Z,35.31
2019-04-22T09:28:17.444Z,35.18
2019-04-22T09:30:56.917Z,34.31
2019-04-22T09:33:27.152Z,34.56
2019-04-22T09:36:07.830Z,35.30
2019-04-22T09:41:10.674Z,35.38
2019-04-22T09:43:49.316Z,35.30
2019-04-22T09:46:14.887Z,34.64
2019-04-22T09:51:26.830Z,34.54
2019-04-22T09:54:06.023Z,34.44
2019-04-22T09:56:46.453Z,32.96
2019-04-22T09:59:08.821Z,34.43
2019-04-22T10:01:47.503Z,34.08
2019-04-22T10:04:20.135Z,33.46
2019-04-22T10:06:54.640Z,33.46
2019-04-22T10:12:10.295Z,33.62
2019-04-22T10:17:25.154Z,32.53
2019-04-22T10:20:01.104Z,33.38
2019-04-22T10:22:42.517Z,33.05
2019-04-22T10:25:10.663Z,33.29
2019-04-22T10:27:53.607Z,33.08
2019-04-22T10:30:25.205Z,33.34
2019-04-22T10:32:56.364Z,34.42
2019-04-22T10:35:15.413Z,33.35
2019-04-22T10:37:44.254Z,34.09
2019-04-22T10:40:42.716Z,33.20
2019-04-22T10:43:17.054Z,33.83
2019-04-22T10:45:50.245Z,33.25
2019-04-22T10:48:22.101Z,32.64
2019-04-22T10:50:54.930Z,32.42
2019-04-22T10:53:27.001Z,31.77
2019-04-22T10:56:01.018Z,31.89
2019-04-22T10:58:34.938Z,33.13
2019-04-22T11:01:07.404Z,33.29
2019-04-22T11:03:41.524Z,32.84
2019-04-22T11:06:15.086Z,31.76
2019-04-22T11:08:52.842Z,31.45
2019-04-22T11:11:34.782Z,31.86
2019-04-22T11:13:56.050Z,33.18
2019-04-22T11:16:29.896Z,32.64
2019-04-22T11:19:05.563Z,31.70
2019-04-22T11:21:41.243Z,30.50
2019-04-22T11:24:16.755Z,31.53
2019-04-22T11:26:49.334Z,32.18
2019-04-22T11:29:23.775Z,31.91
2019-04-22T11:31:57.183Z,33.52
2019-04-22T11:34:33.275Z,32.18
2019-04-22T11:37:06.017Z,31.51
2019-04-22T11:39:40.754Z,30.64
2019-04-22T11:42:14.088Z,30.33
2019-04-22T11:44:47.627Z,32.03
2019-04-22T11:47:21.547Z,31.22
2019-04-22T11:49:54.766Z,31.13
2019-04-22T11:52:28.835Z,31.23
2019-04-22T11:55:04.528Z,31.40
2019-04-22T11:57:37.163Z,30.88
2019-04-22T12:00:14.575Z,30.68
2019-04-22T12:02:49.320Z,31.13
2019-04-22T12:05:23.780Z,31.33
2019-04-22T12:07:57.416Z,31.45
2019-04-22T12:10:38.948Z,30.87
2019-04-22T12:13:10.210Z,31.48
2019-04-22T12:15:42.871Z,30.56
2019-04-22T12:18:15.359Z,30.20
2019-04-22T12:20:48.787Z,30.77
2019-04-22T12:23:21.102Z,30.88
2019-04-22T12:26:01.848Z,31.10
2019-04-22T12:28:28.778Z,31.01
2019-04-22T12:31:01.663Z,29.83
2019-04-22T12:33:35.087Z,30.63
2019-04-22T12:36:12.662Z,29.91
2019-04-22T12:38:47.491Z,30.31
2019-04-22T12:41:21.556Z,29.33
2019-04-22T12:43:55.493Z,30.26
2019-04-22T12:46:28.220Z,29.46
2019-04-22T12:49:02.268Z,29.80
2019-04-22T12:51:36.744Z,29.42
2019-04-22T12:54:10.989Z,29.32
2019-04-22T12:56:47.966Z,30.68
2019-04-22T12:59:21.147Z,30.35
2019-04-22T13:01:55.312Z,30.57
2019-04-22T13:04:28.336Z,30.88
2019-04-22T13:07:01.843Z,29.74
2019-04-22T13:09:35.817Z,30.62
2019-04-22T13:12:11.082Z,29.67
2019-04-22T13:14:45.411Z,29.50
2019-04-22T13:17:20.872Z,29.97
2019-04-22T13:19:54.501Z,30.42
2019-04-22T13:22:28.363Z,30.79
2019-04-22T13:25:02.051Z,29.88
2019-04-22T13:27:37.049Z,29.90
2019-04-22T13:30:12.428Z,29.95
2019-04-22T13:32:44.933Z,30.22
2019-04-22T13:35:20.032Z,29.40
2019-04-22T13:37:53.077Z,29.28
2019-04-22T13:40:25.182Z,28.94
2019-04-22T13:42:58.678Z,29.56
2019-04-22T13:45:31.870Z,28.96
2019-04-22T13:48:24.053Z,30.20
2019-04-22T13:56:15.417Z,28.98
2019-04-22T13:58:35.568Z,29.33
2019-04-22T14:01:00.606Z,28.89
2019-04-22T14:03:52.318Z,29.05
2019-04-22T14:06:28.935Z,29.72
2019-04-22T14:09:03.198Z,29.22
2019-04-22T14:11:48.850Z,29.18
2019-04-22T14:14:10.986Z,28.98
2019-04-22T14:16:47.120Z,29.12
2019-04-22T14:19:21.571Z,28.62
2019-04-22T14:21:55.757Z,28.96
2019-04-22T14:24:30.135Z,28.96
2019-04-22T14:27:17.465Z,28.89
2019-04-22T14:29:39.769Z,28.36
2019-04-22T14:32:19.634Z,28.51
2019-04-22T14:34:49.200Z,27.95
2019-04-22T14:37:22.357Z,28.63
2019-04-22T14:39:55.812Z,28.51
2019-04-22T14:42:52.277Z,27.49
2019-04-22T14:45:52.173Z,27.85
2019-04-22T14:48:07.101Z,27.79
2019-04-22T14:50:38.896Z,28.14
2019-04-22T14:53:08.062Z,28.05
2019-04-22T14:55:29.038Z,28.20
2019-04-22T14:58:01.562Z,28.51
2019-04-22T15:00:35.922Z,28.80
2019-04-22T15:03:13.479Z,28.93
2019-04-22T15:05:48.265Z,28.56
2019-04-22T15:08:21.603Z,28.74
2019-04-22T15:10:55.869Z,29.12
2019-04-22T15:13:29.526Z,29.30
2019-04-22T15:16:25.809Z,29.21
2019-04-22T15:19:20.162Z,29.61
2019-04-22T15:21:54.551Z,29.51
2019-04-22T15:24:29.407Z,29.50
2019-04-22T15:27:04.711Z,29.57
2019-04-22T15:29:39.228Z,29.48
2019-04-22T15:32:13.507Z,29.70
2019-04-22T15:34:49.117Z,29.63
2019-04-22T15:37:24.327Z,30.04
2019-04-22T15:39:58.582Z,29.85
2019-04-22T15:42:35.506Z,29.60
2019-04-22T15:45:05.888Z,30.26
2019-04-22T15:47:39.940Z,30.25
2019-04-22T15:50:14.183Z,30.51
2019-04-22T15:52:51.929Z,30.46
2019-04-22T15:55:26.793Z,30.40
2019-04-22T15:58:01.940Z,30.68
2019-04-22T16:00:47.198Z,30.89
2019-04-22T16:03:14.491Z,30.82
2019-04-22T16:05:50.312Z,30.67
2019-04-22T16:08:26.746Z,30.50
2019-04-22T16:11:11.729Z,30.80
2019-04-22T16:13:44.361Z,30.60
2019-04-22T16:16:16.504Z,30.93
2019-04-22T16:19:02.369Z,30.88
2019-04-22T16:21:45.487Z,31.10
2019-04-22T16:24:27.920Z,31.25
2019-04-22T16:27:08.903Z,31.70
2019-04-22T16:29:43.177Z,31.67
2019-04-22T16:32:15.797Z,31.64
2019-04-22T16:34:47.779Z,31.94
2019-04-22T16:37:20.812Z,31.84
2019-04-22T16:39:56.727Z,32.04
2019-04-22T16:42:37.903Z,32.10
2019-04-22T16:45:04.870Z,32.90
2019-04-22T16:47:39.557Z,33.71
2019-04-22T16:50:14.177Z,34.30
2019-04-22T16:52:48.084Z,33.92
2019-04-22T16:55:22.991Z,34.50
2019-04-22T16:57:54.753Z,35.01
2019-04-22T17:00:27.033Z,35.50
2019-04-22T17:03:25.089Z,35.96
2019-04-22T17:06:17.333Z,36.35
2019-04-22T17:08:48.778Z,37.12
2019-04-22T17:11:20.282Z,37.65
2019-04-22T17:13:53.022Z,38.05
2019-04-22T17:16:26.126Z,38.36
2019-04-22T17:18:58.526Z,38.78
2019-04-22T17:21:32.809Z,38.97
2019-04-22T17:24:07.773Z,39.17
2019-04-22T17:26:42.363Z,39.43
2019-04-22T17:29:16.607Z,39.67
2019-04-22T17:31:56.891Z,39.80
2019-04-22T17:34:23.421Z,40.05
2019-04-22T17:36:55.346Z,39.91
2019-04-22T17:39:41.134Z,39.89
2019-04-22T17:42:25.249Z,39.97
2019-04-22T17:45:19.148Z,40.10
2019-04-22T17:48:14.103Z,40.02
2019-04-22T17:50:57.853Z,39.89
2019-04-22T17:53:26.104Z,40.16
2019-04-22T17:56:02.168Z,39.76
2019-04-22T17:58:42.238Z,39.57
2019-04-22T18:01:21.995Z,39.35
2019-04-22T18:03:37.453Z,39.45
2019-04-22T18:06:11.025Z,39.34
2019-04-22T18:09:03.576Z,39.45
2019-04-22T18:11:40.184Z,39.57
2019-04-22T18:14:27.213Z,39.70
2019-04-22T18:16:42.769Z,39.66
2019-04-22T18:19:16.669Z,39.90
2019-04-22T18:21:47.566Z,39.98
2019-04-22T18:24:18.234Z,39.92
2019-04-22T18:27:18.970Z,39.97
2019-04-22T18:29:41.660Z,40.05
2019-04-22T18:32:05.353Z,40.20
2019-04-22T18:34:42.885Z,40.33
2019-04-22T18:37:16.691Z,40.22
2019-04-22T18:39:58.405Z,40.49
2019-04-22T18:42:27.110Z,40.62
2019-04-22T18:45:24.611Z,40.69
2019-04-22T18:47:44.283Z,40.68
2019-04-22T18:50:26.537Z,40.49
2019-04-22T18:53:27.357Z,40.35
2019-04-22T18:56:07.902Z,40.31
2019-04-22T18:58:36.805Z,40.46
2019-04-22T19:00:59.678Z,40.75
2019-04-22T19:03:44.763Z,40.97
2019-04-22T19:06:35.468Z,41.52
2019-04-22T19:09:11.980Z,41.97
2019-04-22T19:11:46.576Z,42.06
2019-04-22T19:14:22.131Z,42.48
2019-04-22T19:16:55.880Z,42.60
2019-04-22T19:21:57.519Z,43.15
2019-04-22T19:24:37.205Z,43.26
2019-04-22T19:27:09.000Z,43.40
2019-04-22T19:29:55.789Z,43.55
2019-04-22T19:32:21.318Z,43.88
2019-04-22T19:34:52.473Z,44.40
2019-04-22T19:37:28.422Z,44.62
2019-04-22T19:42:43.219Z,45.20
2019-04-22T19:45:10.787Z,45.31
2019-04-22T19:47:54.683Z,45.70
2019-04-22T19:50:29.499Z,46.02
2019-04-22T19:52:59.435Z,46.65
2019-04-22T19:55:34.968Z,46.91
2019-04-22T19:58:07.146Z,46.72
2019-04-22T20:01:15.111Z,47.12
2019-04-22T20:04:16.153Z,47.34
2019-04-22T20:06:53.444Z,47.64
2019-04-22T20:09:30.344Z,47.90
2019-04-22T20:12:00.601Z,47.76
2019-04-22T20:14:41.525Z,47.87
2019-04-22T20:17:07.547Z,48.11
2019-04-22T20:19:49.839Z,48.26
2019-04-22T20:22:17.833Z,48.63
2019-04-22T20:24:47.462Z,48.71
2019-04-22T20:27:30.308Z,48.60
2019-04-22T20:30:04.986Z,48.76
2019-04-22T20:32:37.643Z,48.89
2019-04-22T20:35:19.370Z,49.02
2019-04-22T20:37:53.688Z,49.25
2019-04-22T20:40:23.310Z,49.49
2019-04-22T20:43:00.384Z,49.65
2019-04-22T20:45:35.118Z,49.84
2019-04-22T20:48:00.211Z,49.85
2019-04-22T20:50:48.569Z,50.08
2019-04-22T20:53:28.021Z,50.29
2019-04-22T20:55:52.511Z,50.62
2019-04-22T20:58:29.739Z,50.32
2019-04-22T21:00:55.584Z,50.77
2019-04-22T21:03:27.325Z,51.00
2019-04-22T21:06:06.902Z,51.00
2019-04-22T21:08:50.356Z,51.51
2019-04-22T21:11:22.417Z,51.14
2019-04-22T21:14:04.394Z,51.80
2019-04-22T21:16:35.118Z,51.83
2019-04-22T21:19:20.012Z,51.73
2019-04-22T21:21:46.345Z,52.05
2019-04-22T21:24:20.526Z,52.42
2019-04-22T21:27:01.982Z,52.43
2019-04-22T21:29:26.536Z,52.26
2019-04-22T21:32:09.070Z,52.48
2019-04-22T21:34:43.691Z,52.48
2019-04-22T21:37:34.683Z,52.38
2019-04-22T21:39:43.556Z,52.72
2019-04-22T21:42:19.215Z,53.11
2019-04-22T21:44:51.162Z,53.20
2019-04-22T21:47:40.376Z,52.97
2019-04-22T21:50:28.350Z,52.94
2019-04-22T21:52:54.540Z,53.33
2019-04-22T21:55:26.461Z,53.88
2019-04-22T21:58:07.040Z,53.49
2019-04-22T22:00:53.136Z,53.40
2019-04-22T22:03:23.731Z,53.93
2019-04-22T22:05:44.605Z,53.79
2019-04-22T22:08:34.594Z,54.46
2019-04-22T22:11:03.766Z,54.48
2019-04-22T22:13:38.701Z,54.44
2019-04-22T22:16:06.717Z,54.74
2019-04-22T22:18:35.077Z,54.53
2019-04-22T22:21:34.958Z,54.91
2019-04-22T22:23:59.859Z,54.99
2019-04-22T22:26:26.656Z,55.01
2019-04-22T22:29:08.911Z,55.00
2019-04-22T22:31:40.238Z,54.75
2019-04-22T22:34:15.168Z,54.78
2019-04-22T22:36:40.378Z,54.92
2019-04-22T22:39:16.474Z,55.36
2019-04-22T22:41:37.008Z,55.51
2019-04-22T22:44:21.122Z,55.74
2019-04-22T22:47:05.023Z,55.60
2019-04-22T22:49:50.398Z,55.57
2019-04-22T22:54:54.088Z,55.72
2019-04-22T22:57:33.724Z,55.79
2019-04-22T23:00:01.777Z,55.76
2019-04-22T23:02:47.238Z,56.05
2019-04-22T23:05:22.316Z,56.04
2019-04-22T23:07:54.153Z,56.12
2019-04-22T23:10:25.272Z,56.24
2019-04-22T23:13:00.408Z,56.41
2019-04-22T23:15:25.359Z,56.06
2019-04-22T23:17:41.380Z,56.13
2019-04-22T23:20:18.462Z,56.68
2019-04-22T23:23:09.032Z,56.76
2019-04-22T23:25:44.762Z,56.69
2019-04-22T23:28:36.403Z,57.29
2019-04-22T23:31:29.256Z,57.27
2019-04-22T23:34:10.651Z,57.33
2019-04-22T23:36:56.388Z,57.33
2019-04-22T23:39:41.546Z,57.44
2019-04-22T23:42:18.923Z,57.51
2019-04-22T23:44:49.692Z,57.26
2019-04-22T23:47:29.350Z,57.35
2019-04-22T23:50:11.220Z,57.72
2019-04-22T23:53:02.068Z,58.02
2019-04-22T23:55:36.968Z,58.90
2019-04-22T23:58:25.093Z,58.26
